createdAt,value
2022-11-12T00:04:22.915Z,102039.47
2022-11-12T00:14:24.192Z,102046.25
2022-11-12T00:24:25.413Z,102050.47
2022-11-12T00:34:27.049Z,102034.00
2022-11-12T00:44:29.736Z,102041.00
2022-11-12T00:54:30.959Z,102028.91
2022-11-12T01:04:32.212Z,102026.19
2022-11-12T01:14:33.552Z,102041.53
2022-11-12T01:24:34.767Z,102043.41
2022-11-12T01:34:36.051Z,102033.69
2022-11-12T01:44:38.440Z,102023.44
2022-11-12T01:54:39.733Z,102008.81
2022-11-12T02:04:40.992Z,102005.97
2022-11-12T02:14:42.340Z,102008.84
2022-11-12T02:24:43.579Z,102002.63
2022-11-12T02:34:44.856Z,101993.06
2022-11-12T02:44:46.242Z,101993.69
2022-11-12T02:54:47.496Z,101995.56
2022-11-12T03:04:49.704Z,101997.38
2022-11-12T03:14:51.065Z,101996.56
2022-11-12T03:24:52.281Z,102003.09
2022-11-12T03:34:55.587Z,102003.91
2022-11-12T03:44:57.028Z,102003.59
2022-11-12T03:54:58.274Z,102006.47
2022-11-12T04:05:18.237Z,101995.78
2022-11-12T04:15:19.490Z,101986.28
2022-11-12T04:25:39.427Z,101986.38
2022-11-12T04:35:40.691Z,101975.97
2022-11-12T04:45:42.087Z,101979.47
2022-11-12T04:55:43.339Z,101982.41
2022-11-12T05:05:44.630Z,101985.75
2022-11-12T05:15:45.890Z,101980.41
2022-11-12T05:25:47.154Z,101977.75
2022-11-12T05:35:48.373Z,101984.00
2022-11-12T05:45:49.664Z,101979.63
2022-11-12T05:55:50.883Z,101985.47
2022-11-12T06:05:52.099Z,102002.59
2022-11-12T06:15:53.368Z,102010.59
2022-11-12T06:25:54.601Z,102012.53
2022-11-12T06:35:55.892Z,102024.22
2022-11-12T06:45:57.136Z,102024.19
2022-11-12T06:55:58.474Z,102026.56
2022-11-12T07:05:59.747Z,102025.91
2022-11-12T07:16:01.059Z,102028.63
2022-11-12T07:26:02.502Z,102015.38
2022-11-12T07:36:03.868Z,102003.50
2022-11-12T07:46:10.317Z,101997.34
2022-11-12T07:56:12.177Z,101999.53
2022-11-12T08:06:13.412Z,102005.97
2022-11-12T08:16:15.183Z,102017.34
2022-11-12T08:26:16.533Z,102011.38
2022-11-12T08:36:17.858Z,102019.06
2022-11-12T08:46:19.099Z,102013.97
2022-11-12T08:56:20.452Z,102036.94
2022-11-12T09:06:21.703Z,102033.38
2022-11-12T09:16:24.172Z,102035.97
2022-11-12T09:26:25.410Z,102040.34
2022-11-12T09:36:26.679Z,102045.38
2022-11-12T09:46:28.689Z,102036.94
2022-11-12T09:56:30.359Z,102038.75
2022-11-12T10:06:31.724Z,102048.63
2022-11-12T10:16:45.039Z,102027.63
2022-11-12T10:26:46.319Z,102020.38
2022-11-12T10:36:47.675Z,102015.75
2022-11-12T10:46:48.954Z,102014.50
2022-11-12T10:56:55.143Z,102011.38
2022-11-12T11:06:56.804Z,102015.03
2022-11-12T11:16:58.050Z,101993.66
2022-11-12T11:26:59.373Z,101988.16
2022-11-12T11:37:00.633Z,101976.19
2022-11-12T11:47:01.880Z,101973.88
2022-11-12T11:57:03.130Z,101976.19
2022-11-12T12:07:04.450Z,101971.03
2022-11-12T12:17:05.775Z,101958.22
2022-11-12T12:27:07.181Z,101949.56
2022-11-12T12:37:08.418Z,101934.56
2022-11-12T12:47:09.641Z,101923.50
2022-11-12T12:57:10.870Z,101912.72
2022-11-12T13:07:12.141Z,101909.13
2022-11-12T13:17:13.439Z,101903.13
2022-11-12T13:27:14.721Z,101893.72
2022-11-12T13:37:15.964Z,101887.00
2022-11-12T13:47:17.209Z,101882.28
2022-11-12T13:57:18.449Z,101880.09
2022-11-12T14:07:19.754Z,101868.56
2022-11-12T14:17:22.462Z,101861.06
2022-11-12T14:27:24.072Z,101862.75
2022-11-12T14:37:25.324Z,101847.94
2022-11-12T14:47:26.613Z,101845.31
2022-11-12T14:57:27.865Z,101845.34
2022-11-12T15:07:29.231Z,101828.91
2022-11-12T15:17:30.472Z,101825.31
2022-11-12T15:27:31.745Z,101812.22
2022-11-12T15:37:33.498Z,101804.47
2022-11-12T15:47:34.755Z,101800.03
2022-11-12T15:57:36.013Z,101783.63
2022-11-12T16:07:37.272Z,101779.09
2022-11-12T16:17:38.586Z,101763.50
2022-11-12T16:27:40.060Z,101770.34
2022-11-12T16:37:41.347Z,101768.41
2022-11-12T16:47:42.617Z,101758.66
2022-11-12T16:57:43.930Z,101743.38
2022-11-12T17:07:45.585Z,101746.88
2022-11-12T17:17:46.826Z,101747.56
2022-11-12T17:27:48.112Z,101732.59
2022-11-12T17:37:51.233Z,101733.47
2022-11-12T17:47:52.617Z,101731.72
2022-11-12T17:57:53.858Z,101722.66
2022-11-12T18:07:55.114Z,101713.88
2022-11-12T18:17:56.455Z,101724.34
2022-11-12T18:27:57.877Z,101718.22
2022-11-12T18:37:59.151Z,101719.09
2022-11-12T18:48:00.441Z,101725.72
2022-11-12T18:58:01.719Z,101702.25
2022-11-12T19:08:03.041Z,101695.41
2022-11-12T19:18:04.331Z,101683.34
2022-11-12T19:28:05.603Z,101690.84
2022-11-12T19:38:06.900Z,101679.53
2022-11-12T19:48:08.180Z,101663.78
2022-11-12T19:58:09.753Z,101666.28
2022-11-12T20:08:11.397Z,101675.22
2022-11-12T20:18:26.053Z,101665.56
2022-11-12T20:28:27.885Z,101661.25
2022-11-12T20:38:29.701Z,101642.13
2022-11-12T20:48:31.224Z,101643.75
2022-11-12T20:58:32.846Z,101629.25
2022-11-12T21:08:34.204Z,101618.66
2022-11-12T21:18:35.808Z,101618.16
2022-11-12T21:28:43.394Z,101624.69
2022-11-12T21:38:44.962Z,101621.84
2022-11-12T21:48:46.645Z,101621.94
2022-11-12T21:58:50.056Z,101609.75
2022-11-12T22:08:51.359Z,101603.63
2022-11-12T22:18:54.921Z,101591.41
2022-11-12T22:28:56.955Z,101584.25
2022-11-12T22:38:58.276Z,101577.09
2022-11-12T22:48:59.719Z,101567.59
2022-11-12T22:59:03.480Z,101561.56
2022-11-12T23:09:04.802Z,101538.94
2022-11-12T23:19:06.473Z,101511.22
2022-11-12T23:29:08.002Z,101510.50
2022-11-12T23:39:09.430Z,101502.47
2022-11-12T23:49:10.700Z,101488.44
2022-11-12T23:59:11.955Z,101491.22
